Andrews, TX

2:35 AM CDT on September 03, 2014 (GMT -0500)
Near Hospital - Andrews | Change Station
CLOSE
Current Station
Personal Weather Station
Location: Andrews, TX
Elevation: 3178 ft
Nearby Weather Stations

Elev 3178 ft 32.34 °N, 102.54 °W | Updated 5 seconds ago

Clear
Clear
77.4 °F
Feels Like 77 °F
N
0.0
Wind Variable Wind from SSE
Gusts 0.0 mph

Today
High -- | Low -- °F
--% Chance of Precip.
Yesterday
High -- | Low -- °F
Precip. -- in
7:26 AM 8:11 PM
First Quarter, 59% visible
Pressure 29.98 in
Visibility 10.0 miles
Clouds Clear
Heat Index 77 °F
Dew Point 23 °F
Humidity 13%
Rainfall 0.00 in
Snow Depth Not available.
UV 0 out of 12
Pollen 10.90 out of 12
Air Quality Not available.
Flu Activity Not available.
METAR KE11 030715Z AUTO 17004KT 10SM CLR 25/15 A2998 RMK AO2 T02540152

More Conditions Fewer Conditions

Pressure 29.98 in
Visibility 10.0 miles
Clouds Clear
Heat Index 77 °F
Dew Point 23 °F
Humidity 13%
Rainfall 0.00 in
Snow Depth Not available.
UV 0 out of 12
Pollen 10.90 out of 12
Air Quality Not available.
Flu Activity Not available.
METAR KE11 030715Z AUTO 17004KT 10SM CLR 25/15 A2998 RMK AO2 T02540152

More Conditions Fewer Conditions

10-Day Weather Forecast

Almanac

Astronomy

Sep. 03, 2014 Rise Set
Actual Time 7:26 AM CDT 8:11 PM CDT
Civil Twilight 7:01 AM CDT 8:36 PM CDT
Nautical Twilight 6:32 AM CDT 9:06 PM CDT
Astronomical Twilight 6:02 AM CDT 9:36 PM CDT
Moon 3:45 PM CDT 1:33 AM CDT
Length of Visible Light 13h 35m
Length of Day
12h 45m
Tomorrow will be 1m 54s shorter.
First Quarter, 59% of the Moon is Illuminated
Today
First Quarter
Sep 8
Full
Sep 15
Last Quarter
Sep 24
New
Oct 1
First Quarter

Today's Extremes

State Highs State Lows

Community

WunderPhotos

Upload Photos

1,749,891 photos uploaded!

Nearby

Snow Depth

Station Depth Elevation
No new snow has been reported.

Earthquake Activity

City Distance Mag. Time & Date
No recent earthquake activity has been reported nearby.
Minimum magnitude displayed is 2.5.

Coastal Water Temperatures

Place Temperature
No Stations Reporting

Nearby Weather Stations